createdAt,value
2018-10-06T00:00:48.406Z,0.00
2018-10-06T00:01:48.397Z,0.00
2018-10-06T00:02:48.400Z,0.00
2018-10-06T00:03:48.409Z,0.00
2018-10-06T00:04:48.412Z,0.00
2018-10-06T00:05:48.417Z,0.00
2018-10-06T00:06:48.419Z,0.00
2018-10-06T00:07:48.449Z,0.00
2018-10-06T00:08:48.636Z,0.00
2018-10-06T00:09:48.438Z,0.00
2018-10-06T00:10:48.444Z,0.00
2018-10-06T00:11:48.648Z,0.00
2018-10-06T00:12:48.453Z,0.00
2018-10-06T00:13:48.456Z,0.00
2018-10-06T00:14:48.463Z,0.00
2018-10-06T00:15:48.470Z,0.00
2018-10-06T00:16:48.469Z,0.00
2018-10-06T00:17:48.490Z,0.00
2018-10-06T00:18:48.478Z,0.00
2018-10-06T00:19:48.497Z,0.00
2018-10-06T00:20:48.491Z,0.00
2018-10-06T00:21:48.495Z,0.00
2018-10-06T00:22:48.500Z,0.00
2018-10-06T00:23:48.519Z,0.00
2018-10-06T00:24:48.508Z,0.00
2018-10-06T00:25:48.728Z,0.00
2018-10-06T00:26:48.519Z,0.00
2018-10-06T00:27:48.541Z,0.00
2018-10-06T00:28:48.760Z,0.00
2018-10-06T00:29:48.531Z,0.00
2018-10-06T00:30:48.738Z,0.00
2018-10-06T00:31:48.543Z,0.00
2018-10-06T00:32:48.549Z,0.00
2018-10-06T00:33:48.551Z,0.00
2018-10-06T00:34:48.566Z,0.00
2018-10-06T00:35:48.559Z,0.00
2018-10-06T00:36:48.568Z,0.00
2018-10-06T00:37:48.774Z,0.00
2018-10-06T00:38:48.586Z,0.00
2018-10-06T00:39:48.581Z,0.00
2018-10-06T00:40:48.585Z,0.00
2018-10-06T00:41:48.600Z,0.00
2018-10-06T00:42:48.606Z,0.00
2018-10-06T00:43:48.611Z,0.00
2018-10-06T00:44:48.604Z,0.00
2018-10-06T00:45:48.611Z,0.00
2018-10-06T00:46:48.624Z,0.00
2018-10-06T00:47:48.622Z,0.00
2018-10-06T00:48:48.624Z,0.00
2018-10-06T00:49:48.631Z,0.00
2018-10-06T00:50:48.633Z,0.00
2018-10-06T00:51:48.647Z,0.00
2018-10-06T00:52:48.642Z,0.00
2018-10-06T00:53:48.658Z,0.00
2018-10-06T00:54:48.671Z,0.00
2018-10-06T00:55:48.656Z,0.00
2018-10-06T00:56:48.683Z,0.00
2018-10-06T00:57:48.667Z,0.00
2018-10-06T00:58:48.671Z,0.00
2018-10-06T00:59:48.675Z,0.00
2018-10-06T01:00:48.691Z,0.00
2018-10-06T01:01:48.885Z,0.00
2018-10-06T01:02:48.702Z,0.00
2018-10-06T01:03:48.692Z,0.00
2018-10-06T01:04:48.698Z,0.00
2018-10-06T01:05:48.730Z,0.00
2018-10-06T01:06:48.709Z,0.00
2018-10-06T01:07:48.725Z,0.00
2018-10-06T01:08:48.717Z,0.00
2018-10-06T01:09:48.722Z,0.00
2018-10-06T01:10:48.727Z,0.00
2018-10-06T01:11:48.732Z,0.00
2018-10-06T01:12:48.737Z,0.00
2018-10-06T01:13:48.745Z,0.00
2018-10-06T01:14:48.757Z,0.00
2018-10-06T01:15:48.763Z,0.00
2018-10-06T01:16:48.756Z,0.00
2018-10-06T01:17:48.769Z,0.00
2018-10-06T01:18:48.762Z,0.00
2018-10-06T01:19:48.981Z,0.00
2018-10-06T01:20:48.773Z,0.00
2018-10-06T01:21:48.778Z,0.00
2018-10-06T01:22:48.783Z,0.00
2018-10-06T01:23:48.789Z,0.00
2018-10-06T01:24:48.793Z,0.00
2018-10-06T01:25:48.797Z,0.00
2018-10-06T01:26:48.804Z,0.00
2018-10-06T01:27:48.806Z,0.00
2018-10-06T01:28:48.823Z,0.00
2018-10-06T01:29:49.035Z,0.00
2018-10-06T01:30:49.022Z,0.00
2018-10-06T01:31:48.827Z,0.00
2018-10-06T01:32:48.831Z,0.00
2018-10-06T01:33:48.835Z,0.00
2018-10-06T01:34:48.854Z,0.00
2018-10-06T01:35:48.843Z,0.00
2018-10-06T01:36:48.850Z,0.00
2018-10-06T01:37:48.862Z,0.00
2018-10-06T01:38:48.871Z,0.00
2018-10-06T01:39:48.864Z,0.00
2018-10-06T01:40:48.868Z,0.00
2018-10-06T01:41:48.875Z,0.00
2018-10-06T01:42:48.879Z,0.00
2018-10-06T01:43:48.884Z,0.00
2018-10-06T01:44:48.888Z,0.00
2018-10-06T01:45:48.919Z,0.00
2018-10-06T01:46:48.907Z,0.00
2018-10-06T01:47:48.901Z,0.00
2018-10-06T01:48:48.906Z,0.00
2018-10-06T01:49:48.961Z,0.00
2018-10-06T01:50:48.921Z,0.00
2018-10-06T01:51:48.922Z,0.00
2018-10-06T01:52:49.137Z,0.00
2018-10-06T01:53:48.928Z,0.00
2018-10-06T01:54:48.931Z,0.00
2018-10-06T01:55:48.938Z,0.00
2018-10-06T01:56:48.942Z,0.00
2018-10-06T01:57:48.959Z,0.00
2018-10-06T01:58:48.959Z,0.00
2018-10-06T01:59:48.967Z,0.00
2018-10-06T02:00:48.960Z,0.00
2018-10-06T02:01:48.975Z,0.00
2018-10-06T02:02:48.969Z,0.00
2018-10-06T02:03:49.026Z,0.00
2018-10-06T02:04:48.999Z,0.00
2018-10-06T02:05:48.996Z,0.00
2018-10-06T02:06:49.001Z,0.00
2018-10-06T02:07:49.008Z,0.00
2018-10-06T02:08:49.000Z,0.00
2018-10-06T02:09:49.002Z,0.00
2018-10-06T02:10:49.027Z,0.00
2018-10-06T02:11:49.021Z,0.00
2018-10-06T02:12:49.029Z,0.00
2018-10-06T02:13:49.021Z,0.00
2018-10-06T02:14:49.034Z,0.00
2018-10-06T02:15:49.027Z,0.00
2018-10-06T02:16:49.036Z,0.00
2018-10-06T02:17:49.038Z,0.00
2018-10-06T02:18:49.052Z,0.00
2018-10-06T02:19:49.262Z,0.00
2018-10-06T02:20:49.069Z,0.00
2018-10-06T02:21:49.073Z,0.00
2018-10-06T02:22:49.063Z,0.00
2018-10-06T02:23:49.070Z,0.00
2018-10-06T02:24:49.073Z,0.00
2018-10-06T02:25:49.087Z,0.00
2018-10-06T02:26:49.093Z,0.00
2018-10-06T02:27:49.289Z,0.00
2018-10-06T02:28:49.295Z,0.00
2018-10-06T02:29:49.096Z,0.00
2018-10-06T02:30:49.097Z,0.00
2018-10-06T02:31:49.103Z,0.00
2018-10-06T02:32:49.110Z,0.00
2018-10-06T02:33:49.124Z,0.00
2018-10-06T02:34:49.134Z,0.00
2018-10-06T02:35:49.124Z,0.00
2018-10-06T02:36:49.169Z,0.00
2018-10-06T02:37:49.147Z,0.00
2018-10-06T02:38:49.347Z,0.00
2018-10-06T02:39:49.141Z,0.00
2018-10-06T02:40:49.148Z,0.00
2018-10-06T02:41:49.366Z,0.00
2018-10-06T02:42:49.159Z,0.00
2018-10-06T02:43:49.365Z,0.00
2018-10-06T02:44:49.166Z,0.00
2018-10-06T02:45:49.174Z,0.00
2018-10-06T02:46:49.172Z,0.00
2018-10-06T02:47:49.186Z,0.00
2018-10-06T02:48:49.385Z,0.00
2018-10-06T02:49:49.398Z,0.00
2018-10-06T02:50:49.393Z,0.00
2018-10-06T02:51:49.200Z,0.00
2018-10-06T02:52:49.199Z,0.00
2018-10-06T02:53:49.410Z,0.00
2018-10-06T02:54:49.225Z,0.00
2018-10-06T02:55:49.215Z,0.00
2018-10-06T02:56:49.420Z,0.00
2018-10-06T02:57:49.222Z,0.00
2018-10-06T02:58:49.238Z,0.00
2018-10-06T02:59:49.435Z,0.00
2018-10-06T03:00:49.240Z,0.00
2018-10-06T03:01:49.443Z,0.00
2018-10-06T03:02:49.257Z,0.00
2018-10-06T03:03:49.261Z,0.00
2018-10-06T03:04:49.254Z,0.00
2018-10-06T03:05:49.262Z,0.00
2018-10-06T03:06:49.276Z,0.00
2018-10-06T03:07:49.281Z,0.00
2018-10-06T03:08:49.287Z,0.00
2018-10-06T03:09:49.289Z,0.00
2018-10-06T03:10:49.282Z,0.00
2018-10-06T03:11:49.289Z,0.00
2018-10-06T03:12:49.509Z,0.00
2018-10-06T03:13:49.293Z,0.00
2018-10-06T03:14:49.300Z,0.00
2018-10-06T03:15:49.314Z,0.00
2018-10-06T03:16:49.310Z,0.00
2018-10-06T03:17:49.313Z,0.00
2018-10-06T03:18:49.328Z,0.00
2018-10-06T03:19:49.321Z,0.00
2018-10-06T03:20:49.357Z,0.00
2018-10-06T03:21:49.335Z,0.00
2018-10-06T03:22:49.335Z,0.00
2018-10-06T03:23:49.340Z,0.00
2018-10-06T03:24:49.356Z,0.00
2018-10-06T03:25:49.349Z,0.00
2018-10-06T03:26:49.555Z,0.00
2018-10-06T03:27:49.368Z,0.00
2018-10-06T03:28:49.572Z,0.00
2018-10-06T03:29:49.364Z,0.00
2018-10-06T03:30:49.386Z,0.00
2018-10-06T03:31:49.583Z,0.00
2018-10-06T03:32:49.398Z,0.00
2018-10-06T03:33:49.383Z,0.00
2018-10-06T03:34:49.393Z,0.00
2018-10-06T03:35:49.395Z,0.00
2018-10-06T03:36:49.401Z,0.00
2018-10-06T03:37:49.401Z,0.00
2018-10-06T03:38:49.409Z,0.00
2018-10-06T03:39:49.413Z,0.00
2018-10-06T03:40:49.419Z,0.00
2018-10-06T03:41:49.424Z,0.00
2018-10-06T03:42:49.641Z,0.00
2018-10-06T03:43:49.440Z,0.00
2018-10-06T03:44:49.449Z,0.00
2018-10-06T03:45:49.439Z,0.00
2018-10-06T03:46:49.470Z,0.00
2018-10-06T03:47:49.661Z,0.00
2018-10-06T03:48:49.661Z,0.00
2018-10-06T03:49:49.456Z,0.00
2018-10-06T03:50:49.460Z,0.00
2018-10-06T03:51:49.467Z,0.00
2018-10-06T03:52:49.475Z,0.00
2018-10-06T03:53:49.494Z,0.00
2018-10-06T03:54:49.498Z,0.00
2018-10-06T03:55:49.711Z,0.00
2018-10-06T03:56:49.524Z,0.00
2018-10-06T03:57:49.523Z,0.00
2018-10-06T03:58:49.721Z,0.00
2018-10-06T03:59:49.516Z,0.00
2018-10-06T04:00:49.527Z,0.00
2018-10-06T04:01:49.509Z,0.00
2018-10-06T04:02:49.515Z,0.00
2018-10-06T04:03:49.537Z,0.00
2018-10-06T04:04:49.730Z,0.00
2018-10-06T04:05:49.536Z,0.00
2018-10-06T04:06:49.548Z,0.00
2018-10-06T04:07:49.544Z,0.00
2018-10-06T04:08:49.547Z,0.00
2018-10-06T04:09:49.562Z,0.00
2018-10-06T04:10:49.550Z,0.00
2018-10-06T04:11:49.558Z,0.00
2018-10-06T04:12:49.560Z,0.00
2018-10-06T04:13:49.577Z,0.00
2018-10-06T04:14:49.566Z,0.00
2018-10-06T04:15:49.577Z,0.00
2018-10-06T04:16:49.577Z,0.00
2018-10-06T04:17:49.583Z,0.00
2018-10-06T04:18:49.599Z,0.00
2018-10-06T04:19:49.594Z,0.00
2018-10-06T04:20:49.596Z,0.00
2018-10-06T04:21:49.604Z,0.00
2018-10-06T04:22:49.610Z,0.00
2018-10-06T04:23:49.612Z,0.00
2018-10-06T04:24:49.612Z,0.00
2018-10-06T04:25:49.633Z,0.00
2018-10-06T04:26:49.624Z,0.00
2018-10-06T04:27:49.626Z,0.00
2018-10-06T04:28:49.630Z,0.00
2018-10-06T04:29:49.651Z,0.00
2018-10-06T04:30:49.640Z,0.00
2018-10-06T04:31:49.647Z,0.00
2018-10-06T04:32:49.648Z,0.00
2018-10-06T04:33:49.649Z,0.00
2018-10-06T04:34:49.657Z,0.00
2018-10-06T04:35:49.660Z,0.00
2018-10-06T04:36:49.666Z,0.00
2018-10-06T04:37:49.672Z,0.00
2018-10-06T04:38:49.747Z,0.00
2018-10-06T04:39:49.680Z,0.00
2018-10-06T04:40:49.686Z,0.00
2018-10-06T04:41:49.703Z,0.00
2018-10-06T04:42:49.905Z,0.00
2018-10-06T04:43:49.708Z,0.00
2018-10-06T04:44:49.701Z,0.00
2018-10-06T04:45:49.708Z,0.00
2018-10-06T04:46:49.725Z,0.00
2018-10-06T04:47:49.713Z,0.00
2018-10-06T04:48:49.720Z,0.00
2018-10-06T04:49:49.724Z,0.00
2018-10-06T04:50:49.737Z,0.00
2018-10-06T04:51:49.737Z,0.00
2018-10-06T04:52:49.739Z,0.00
2018-10-06T04:53:49.743Z,0.00
2018-10-06T04:54:49.744Z,0.00
2018-10-06T04:55:49.748Z,0.00
2018-10-06T04:56:49.759Z,0.00
2018-10-06T04:57:49.962Z,0.00
2018-10-06T04:58:49.765Z,0.00
2018-10-06T04:59:49.797Z,0.00
2018-10-06T05:00:49.771Z,0.00
2018-10-06T05:01:49.775Z,0.00
2018-10-06T05:02:49.983Z,0.00
2018-10-06T05:03:49.784Z,0.00
2018-10-06T05:04:49.805Z,0.00
2018-10-06T05:05:49.802Z,0.00
2018-10-06T05:06:50.015Z,0.00
2018-10-06T05:07:49.804Z,0.00
2018-10-06T05:08:49.812Z,0.00
2018-10-06T05:09:49.812Z,0.00
2018-10-06T05:10:49.818Z,0.00
2018-10-06T05:11:49.823Z,0.00
2018-10-06T05:12:49.851Z,0.00
2018-10-06T05:13:49.828Z,0.00
2018-10-06T05:14:49.833Z,0.00
2018-10-06T05:15:49.852Z,0.00
2018-10-06T05:16:49.854Z,0.00
2018-10-06T05:17:49.876Z,0.00
2018-10-06T05:18:49.866Z,0.00
2018-10-06T05:19:49.857Z,0.00
2018-10-06T05:20:49.863Z,0.00
2018-10-06T05:21:49.866Z,0.00
2018-10-06T05:22:49.874Z,0.00
2018-10-06T05:23:49.886Z,0.00
2018-10-06T05:24:50.082Z,0.00
2018-10-06T05:25:49.888Z,4.00
2018-10-06T05:26:49.889Z,4.00
2018-10-06T05:27:49.889Z,4.00
2018-10-06T05:28:49.899Z,0.00
2018-10-06T05:29:49.905Z,4.00
2018-10-06T05:30:49.902Z,4.00
2018-10-06T05:31:49.909Z,4.00
2018-10-06T05:32:49.924Z,4.00
2018-10-06T05:33:50.157Z,4.00
2018-10-06T05:34:50.127Z,8.00
2018-10-06T05:35:49.926Z,4.00
2018-10-06T05:36:49.934Z,8.00
2018-10-06T05:37:49.949Z,8.00
2018-10-06T05:38:49.988Z,8.00
2018-10-06T05:39:49.944Z,8.00
2018-10-06T05:40:49.951Z,12.00
2018-10-06T05:41:49.958Z,12.00
2018-10-06T05:42:49.960Z,16.00
2018-10-06T05:43:50.163Z,16.00
2018-10-06T05:44:49.977Z,16.00
2018-10-06T05:45:49.998Z,20.00
2018-10-06T05:46:50.005Z,20.00
2018-10-06T05:47:50.005Z,24.00
2018-10-06T05:48:49.983Z,24.00
2018-10-06T05:49:49.986Z,28.00
2018-10-06T05:50:49.995Z,28.00
2018-10-06T05:51:50.025Z,32.00
2018-10-06T05:52:50.208Z,32.00
2018-10-06T05:53:50.219Z,32.00
2018-10-06T05:54:50.008Z,36.00
2018-10-06T05:55:50.235Z,40.00
2018-10-06T05:56:50.029Z,40.00
2018-10-06T05:57:50.022Z,44.00
2018-10-06T05:58:50.026Z,44.00
2018-10-06T05:59:50.033Z,48.00
2018-10-06T06:00:50.046Z,52.00
2018-10-06T06:01:50.039Z,52.00
2018-10-06T06:02:50.045Z,56.00
2018-10-06T06:03:50.058Z,56.00
2018-10-06T06:04:50.066Z,60.00
2018-10-06T06:05:50.056Z,64.00
2018-10-06T06:06:50.061Z,68.00
2018-10-06T06:07:50.077Z,68.00
2018-10-06T06:08:50.093Z,72.00
2018-10-06T06:09:50.178Z,76.00
2018-10-06T06:10:50.281Z,76.00
2018-10-06T06:11:50.096Z,80.00
2018-10-06T06:12:50.099Z,84.00
2018-10-06T06:13:50.097Z,88.00
2018-10-06T06:14:50.112Z,88.00
2018-10-06T06:15:50.117Z,92.00
2018-10-06T06:16:50.131Z,92.00
2018-10-06T06:17:50.322Z,96.00
2018-10-06T06:18:50.127Z,100.00
2018-10-06T06:19:50.132Z,100.00
2018-10-06T06:20:50.338Z,100.00
2018-10-06T06:21:50.156Z,104.00
2018-10-06T06:22:50.195Z,108.00
2018-10-06T06:23:50.178Z,108.00
2018-10-06T06:24:50.146Z,108.00
2018-10-06T06:25:50.165Z,112.00
2018-10-06T06:26:50.169Z,116.00
2018-10-06T06:27:50.165Z,112.00
2018-10-06T06:28:50.193Z,120.00
2018-10-06T06:29:50.177Z,116.00
2018-10-06T06:30:50.291Z,120.00
2018-10-06T06:31:50.193Z,124.00
2018-10-06T06:32:50.204Z,128.00
2018-10-06T06:33:50.193Z,128.00
2018-10-06T06:34:50.239Z,128.00
2018-10-06T06:35:50.211Z,132.00
2018-10-06T06:36:50.219Z,132.00
2018-10-06T06:37:50.412Z,136.00
2018-10-06T06:38:51.428Z,136.00
2018-10-06T06:39:50.249Z,140.00
2018-10-06T06:40:50.237Z,144.00
2018-10-06T06:41:50.252Z,148.00
2018-10-06T06:42:50.453Z,148.00
2018-10-06T06:43:50.387Z,148.00
2018-10-06T06:44:50.248Z,152.00
2018-10-06T06:45:50.283Z,156.00
2018-10-06T06:46:50.268Z,152.00
2018-10-06T06:47:50.257Z,156.00
2018-10-06T06:48:50.281Z,160.00
2018-10-06T06:49:50.303Z,160.00
2018-10-06T06:50:50.286Z,164.00
2018-10-06T06:51:50.292Z,160.00
2018-10-06T06:52:50.298Z,164.00
2018-10-06T06:53:50.314Z,164.00
2018-10-06T06:54:50.328Z,168.00
2018-10-06T06:55:50.312Z,168.00
2018-10-06T06:56:50.318Z,168.00
2018-10-06T06:57:50.312Z,172.00
2018-10-06T06:58:50.318Z,172.00
2018-10-06T06:59:50.524Z,176.00
2018-10-06T07:00:50.324Z,176.00
2018-10-06T07:01:50.346Z,176.00
2018-10-06T07:02:50.345Z,180.00
2018-10-06T07:03:50.355Z,180.00
2018-10-06T07:04:50.548Z,180.00
2018-10-06T07:05:50.425Z,184.00
2018-10-06T07:06:50.372Z,184.00
2018-10-06T07:07:50.376Z,184.00
2018-10-06T07:08:50.367Z,184.00
2018-10-06T07:09:50.387Z,188.00
2018-10-06T07:10:50.378Z,188.00
2018-10-06T07:11:50.391Z,192.00
2018-10-06T07:12:50.390Z,192.00
2018-10-06T07:13:50.401Z,192.00
2018-10-06T07:14:50.410Z,192.00
2018-10-06T07:15:50.401Z,192.00
2018-10-06T07:16:50.409Z,196.00
2018-10-06T07:17:50.423Z,192.00
2018-10-06T07:18:50.417Z,192.00
2018-10-06T07:19:50.431Z,188.00
2018-10-06T07:20:50.430Z,196.00
2018-10-06T07:21:50.447Z,192.00
2018-10-06T07:22:50.451Z,192.00
2018-10-06T07:23:50.448Z,200.00
2018-10-06T07:24:50.454Z,204.00
2018-10-06T07:25:50.453Z,204.00
2018-10-06T07:26:50.475Z,208.00
2018-10-06T07:27:50.478Z,204.00
2018-10-06T07:28:50.479Z,204.00
2018-10-06T07:29:50.473Z,208.00
2018-10-06T07:30:50.495Z,208.00
2018-10-06T07:31:50.487Z,212.00
2018-10-06T07:32:50.513Z,212.00
2018-10-06T07:33:50.505Z,212.00
2018-10-06T07:34:50.532Z,212.00
2018-10-06T07:35:50.517Z,212.00
2018-10-06T07:36:50.511Z,216.00
2018-10-06T07:37:50.532Z,216.00
2018-10-06T07:38:50.534Z,216.00
2018-10-06T07:39:50.528Z,224.00
2018-10-06T07:40:50.538Z,204.00
2018-10-06T07:41:50.537Z,204.00
2018-10-06T07:42:50.543Z,208.00
2018-10-06T07:43:50.560Z,208.00
2018-10-06T07:44:50.615Z,208.00
2018-10-06T07:45:50.557Z,208.00
2018-10-06T07:46:50.563Z,212.00
2018-10-06T07:47:50.569Z,212.00
2018-10-06T07:48:50.573Z,212.00
2018-10-06T07:49:50.585Z,212.00
2018-10-06T07:50:50.590Z,212.00
2018-10-06T07:51:50.591Z,208.00
2018-10-06T07:52:50.595Z,208.00
2018-10-06T07:53:50.598Z,208.00
2018-10-06T07:54:50.606Z,208.00
2018-10-06T07:55:50.614Z,212.00
2018-10-06T07:56:50.638Z,216.00
2018-10-06T07:57:50.623Z,212.00
2018-10-06T07:58:50.627Z,216.00
2018-10-06T07:59:50.634Z,216.00
2018-10-06T08:00:50.869Z,216.00
2018-10-06T08:01:50.644Z,216.00
2018-10-06T08:02:50.850Z,220.00
2018-10-06T08:03:50.653Z,220.00
2018-10-06T08:04:50.659Z,220.00
2018-10-06T08:05:50.665Z,224.00
2018-10-06T08:06:50.680Z,224.00
2018-10-06T08:07:50.673Z,224.00
2018-10-06T08:08:50.681Z,224.00
2018-10-06T08:09:50.701Z,224.00
2018-10-06T08:10:50.691Z,224.00
2018-10-06T08:11:50.730Z,228.00
2018-10-06T08:12:50.700Z,228.00
2018-10-06T08:13:50.705Z,224.00
2018-10-06T08:14:50.711Z,228.00
2018-10-06T08:15:50.717Z,228.00
2018-10-06T08:16:50.720Z,232.00
2018-10-06T08:17:50.725Z,228.00
2018-10-06T08:18:50.730Z,228.00
2018-10-06T08:19:50.735Z,232.00
2018-10-06T08:20:50.742Z,232.00
2018-10-06T08:21:50.744Z,232.00
2018-10-06T08:22:50.760Z,232.00
2018-10-06T08:23:50.755Z,232.00
2018-10-06T08:24:50.770Z,232.00
2018-10-06T08:25:50.778Z,232.00
2018-10-06T08:26:50.775Z,236.00
2018-10-06T08:27:50.776Z,236.00
2018-10-06T08:28:50.782Z,236.00
2018-10-06T08:29:50.800Z,236.00
2018-10-06T08:30:50.793Z,236.00
2018-10-06T08:31:50.795Z,236.00
2018-10-06T08:32:50.799Z,240.00
2018-10-06T08:33:50.805Z,240.00
2018-10-06T08:34:51.021Z,240.00
2018-10-06T08:35:50.814Z,240.00
2018-10-06T08:36:50.821Z,240.00
2018-10-06T08:37:50.825Z,240.00
2018-10-06T08:38:50.840Z,240.00
2018-10-06T08:39:50.846Z,244.00
2018-10-06T08:40:50.852Z,244.00
2018-10-06T08:41:50.847Z,244.00
2018-10-06T08:42:50.940Z,244.00
2018-10-06T08:43:50.860Z,244.00
2018-10-06T08:44:50.860Z,244.00
2018-10-06T08:45:50.867Z,244.00
2018-10-06T08:46:50.871Z,244.00
2018-10-06T08:47:50.891Z,244.00
2018-10-06T08:48:50.881Z,248.00
2018-10-06T08:49:44.009Z,248.00
2018-10-06T08:50:43.983Z,248.00
2018-10-06T08:51:44.032Z,244.00
2018-10-06T08:52:44.161Z,244.00
2018-10-06T08:53:43.995Z,248.00
2018-10-06T08:54:43.983Z,248.00
2018-10-06T08:55:43.984Z,248.00
2018-10-06T08:56:43.991Z,244.00
2018-10-06T08:57:43.986Z,244.00
2018-10-06T08:58:43.988Z,244.00
2018-10-06T08:59:44.007Z,248.00
2018-10-06T09:00:44.001Z,244.00
2018-10-06T09:01:44.203Z,244.00
2018-10-06T09:02:44.009Z,244.00
2018-10-06T09:03:44.044Z,244.00
2018-10-06T09:04:44.032Z,244.00
2018-10-06T09:05:44.032Z,244.00
2018-10-06T09:06:44.025Z,244.00
2018-10-06T09:07:44.029Z,244.00
2018-10-06T09:08:44.042Z,244.00
2018-10-06T09:39:08.339Z,324.00
2018-10-06T09:40:08.334Z,320.00
2018-10-06T09:41:08.380Z,320.00
2018-10-06T09:42:08.470Z,320.00
2018-10-06T09:43:08.336Z,316.00
2018-10-06T09:45:31.100Z,308.00
2018-10-06T09:56:13.491Z,308.00
2018-10-06T09:57:13.215Z,316.00
2018-10-06T09:58:03.418Z,324.00
2018-10-06T09:59:03.420Z,312.00
2018-10-06T10:00:03.421Z,308.00
2018-10-06T10:01:03.420Z,308.00
2018-10-06T10:02:03.417Z,308.00
2018-10-06T10:03:03.418Z,312.00
2018-10-06T10:04:03.433Z,304.00
2018-10-06T10:05:03.427Z,300.00
2018-10-06T10:06:03.418Z,300.00
2018-10-06T10:07:03.458Z,300.00
2018-10-06T10:08:03.427Z,308.00
2018-10-06T10:09:03.421Z,304.00
2018-10-06T10:10:03.516Z,300.00
2018-10-06T10:11:03.425Z,308.00
2018-10-06T10:12:03.424Z,308.00
2018-10-06T10:13:03.423Z,308.00
2018-10-06T10:14:03.426Z,308.00
2018-10-06T10:15:03.428Z,304.00
2018-10-06T10:16:03.428Z,300.00
2018-10-06T10:17:03.459Z,296.00
2018-10-06T10:18:03.537Z,300.00
2018-10-06T10:19:03.485Z,288.00
2018-10-06T10:20:03.433Z,288.00
2018-10-06T10:21:03.440Z,284.00
2018-10-06T10:22:03.655Z,280.00
2018-10-06T10:23:03.463Z,280.00
2018-10-06T10:24:03.442Z,276.00
2018-10-06T10:25:03.454Z,272.00
2018-10-06T10:26:03.445Z,276.00
2018-10-06T10:27:03.446Z,272.00
2018-10-06T10:28:03.456Z,280.00
2018-10-06T10:29:03.450Z,284.00
2018-10-06T10:30:03.461Z,296.00
2018-10-06T10:31:03.483Z,296.00
2018-10-06T10:32:03.455Z,300.00
2018-10-06T10:33:03.489Z,292.00
2018-10-06T10:34:03.462Z,280.00
2018-10-06T10:35:03.461Z,276.00
2018-10-06T10:36:03.462Z,276.00
2018-10-06T10:37:03.487Z,268.00
2018-10-06T10:38:03.468Z,268.00
2018-10-06T10:39:03.510Z,276.00
2018-10-06T10:40:03.471Z,284.00
2018-10-06T10:41:03.493Z,284.00
2018-10-06T10:42:03.484Z,284.00
2018-10-06T10:43:03.679Z,264.00
2018-10-06T10:44:03.593Z,268.00
2018-10-06T10:45:03.490Z,272.00
2018-10-06T10:46:03.501Z,260.00
2018-10-06T10:47:03.686Z,256.00
2018-10-06T10:48:03.493Z,252.00
2018-10-06T10:49:03.493Z,252.00
2018-10-06T10:50:03.690Z,260.00
2018-10-06T10:51:03.500Z,260.00
2018-10-06T10:52:03.492Z,264.00
2018-10-06T10:53:03.504Z,264.00
2018-10-06T10:54:03.512Z,264.00
2018-10-06T10:55:03.499Z,268.00
2018-10-06T10:56:03.505Z,260.00
2018-10-06T10:57:03.511Z,264.00
2018-10-06T10:58:03.520Z,256.00
2018-10-06T10:59:03.512Z,260.00
2018-10-06T11:00:03.754Z,264.00
2018-10-06T11:01:03.543Z,260.00
2018-10-06T11:02:03.547Z,260.00
2018-10-06T11:03:03.516Z,252.00
2018-10-06T11:04:03.518Z,256.00
2018-10-06T11:05:03.532Z,244.00
2018-10-06T11:06:03.537Z,248.00
2018-10-06T11:07:03.534Z,248.00
2018-10-06T11:08:03.526Z,244.00
2018-10-06T11:09:03.528Z,264.00
2018-10-06T11:10:03.527Z,272.00
2018-10-06T11:11:03.540Z,272.00
2018-10-06T11:12:03.535Z,272.00
2018-10-06T11:13:03.537Z,276.00
2018-10-06T11:14:03.536Z,272.00
2018-10-06T11:15:03.560Z,272.00
2018-10-06T11:16:03.542Z,272.00
2018-10-06T11:17:03.561Z,268.00
2018-10-06T11:18:03.548Z,256.00
2018-10-06T11:19:03.553Z,240.00
2018-10-06T11:20:03.566Z,240.00
2018-10-06T11:21:03.555Z,236.00
2018-10-06T11:22:03.558Z,240.00
2018-10-06T11:23:03.576Z,240.00
2018-10-06T11:24:03.561Z,244.00
2018-10-06T11:25:03.569Z,244.00
2018-10-06T11:26:03.569Z,244.00
2018-10-06T11:27:03.579Z,244.00
2018-10-06T11:28:03.585Z,244.00
2018-10-06T11:29:03.573Z,244.00
2018-10-06T11:30:03.576Z,244.00
2018-10-06T11:31:03.577Z,244.00
2018-10-06T11:32:03.589Z,248.00
2018-10-06T11:33:03.592Z,240.00
2018-10-06T11:34:03.584Z,236.00
2018-10-06T11:35:03.597Z,236.00
2018-10-06T11:36:03.603Z,240.00
2018-10-06T11:37:03.591Z,232.00
2018-10-06T11:38:03.669Z,232.00
2018-10-06T11:39:03.605Z,232.00
2018-10-06T11:40:03.599Z,232.00
2018-10-06T11:41:03.600Z,228.00
2018-10-06T11:42:03.604Z,232.00
2018-10-06T11:43:03.603Z,232.00
2018-10-06T11:44:03.605Z,228.00
2018-10-06T11:45:03.610Z,232.00
2018-10-06T11:46:03.620Z,232.00
2018-10-06T11:47:03.623Z,232.00
2018-10-06T11:48:03.628Z,232.00
2018-10-06T11:49:03.619Z,232.00
2018-10-06T11:50:03.656Z,232.00
2018-10-06T11:51:03.648Z,232.00
2018-10-06T11:52:03.638Z,232.00
2018-10-06T11:53:03.627Z,236.00
2018-10-06T11:54:03.630Z,236.00
2018-10-06T11:55:03.636Z,236.00
2018-10-06T11:56:03.654Z,236.00
2018-10-06T11:57:03.653Z,236.00
2018-10-06T11:58:03.652Z,240.00
2018-10-06T11:59:03.646Z,244.00
2018-10-06T12:00:03.876Z,244.00
2018-10-06T12:01:03.661Z,244.00
2018-10-06T12:02:03.850Z,244.00
2018-10-06T12:03:03.869Z,244.00
2018-10-06T12:04:03.672Z,244.00
2018-10-06T12:05:03.665Z,244.00
2018-10-06T12:06:03.661Z,244.00
2018-10-06T12:07:03.661Z,244.00
2018-10-06T12:08:03.695Z,248.00
2018-10-06T12:09:03.880Z,244.00
2018-10-06T12:10:03.689Z,244.00
2018-10-06T12:11:03.673Z,244.00
2018-10-06T12:12:03.874Z,248.00
2018-10-06T12:13:03.677Z,248.00
2018-10-06T12:14:03.691Z,244.00
2018-10-06T12:15:03.686Z,248.00
2018-10-06T12:16:03.684Z,244.00
2018-10-06T12:17:03.693Z,244.00
2018-10-06T12:18:03.698Z,244.00
2018-10-06T12:19:03.892Z,240.00
2018-10-06T12:20:03.691Z,244.00
2018-10-06T12:21:03.695Z,240.00
2018-10-06T12:22:03.912Z,240.00
2018-10-06T12:23:03.701Z,236.00
2018-10-06T12:24:03.702Z,240.00
2018-10-06T12:25:03.732Z,232.00
2018-10-06T12:26:03.759Z,236.00
2018-10-06T12:27:03.715Z,236.00
2018-10-06T12:28:03.717Z,236.00
2018-10-06T12:29:03.730Z,236.00
2018-10-06T12:30:03.731Z,236.00
2018-10-06T12:31:03.721Z,236.00
2018-10-06T12:32:03.724Z,236.00
2018-10-06T12:33:03.734Z,232.00
2018-10-06T12:34:03.939Z,232.00
2018-10-06T12:35:03.823Z,232.00
2018-10-06T12:36:03.962Z,232.00
2018-10-06T12:37:03.737Z,228.00
2018-10-06T12:38:03.751Z,228.00
2018-10-06T12:39:03.944Z,228.00
2018-10-06T12:40:03.754Z,228.00
2018-10-06T12:41:03.757Z,224.00
2018-10-06T12:42:03.808Z,228.00
2018-10-06T12:43:03.752Z,224.00
2018-10-06T12:44:03.759Z,220.00
2018-10-06T12:45:03.767Z,228.00
2018-10-06T12:46:03.970Z,228.00
2018-10-06T12:47:03.761Z,228.00
2018-10-06T12:48:03.779Z,232.00
2018-10-06T12:49:03.996Z,232.00
2018-10-06T12:50:03.770Z,236.00
2018-10-06T12:51:03.784Z,240.00
2018-10-06T12:52:03.975Z,240.00
2018-10-06T12:53:03.786Z,232.00
2018-10-06T12:54:03.787Z,264.00
2018-10-06T12:55:03.781Z,232.00
2018-10-06T12:56:03.789Z,240.00
2018-10-06T12:57:03.812Z,276.00
2018-10-06T12:58:03.788Z,260.00
2018-10-06T12:59:03.812Z,276.00
2018-10-06T13:00:03.849Z,276.00
2018-10-06T13:01:03.823Z,300.00
2018-10-06T13:02:03.818Z,280.00
2018-10-06T13:03:03.811Z,272.00
2018-10-06T13:04:03.806Z,272.00
2018-10-06T13:05:03.805Z,272.00
2018-10-06T13:06:03.873Z,292.00
2018-10-06T13:07:03.812Z,288.00
2018-10-06T13:08:03.824Z,268.00
2018-10-06T13:09:03.823Z,280.00
2018-10-06T13:10:03.833Z,288.00
2018-10-06T13:11:03.823Z,300.00
2018-10-06T13:12:03.961Z,312.00
2018-10-06T13:13:03.825Z,304.00
2018-10-06T13:14:03.844Z,296.00
2018-10-06T13:15:03.843Z,296.00
2018-10-06T13:16:03.838Z,268.00
2018-10-06T13:17:03.839Z,280.00
2018-10-06T13:18:03.853Z,292.00
2018-10-06T13:19:03.841Z,292.00
2018-10-06T13:20:03.845Z,296.00
2018-10-06T13:21:03.846Z,276.00
2018-10-06T13:22:03.864Z,272.00
2018-10-06T13:23:03.854Z,272.00
2018-10-06T13:24:03.855Z,272.00
2018-10-06T13:25:03.859Z,264.00
2018-10-06T13:26:03.859Z,264.00
2018-10-06T13:27:03.863Z,264.00
2018-10-06T13:28:04.069Z,256.00
2018-10-06T13:29:03.879Z,248.00
2018-10-06T13:30:03.891Z,248.00
2018-10-06T13:31:03.875Z,248.00